Time;durP1;ratioP1;P1;durP2;ratioP2;P2;SDS_P1;SDS_P2;PMS_P1;PMS_P2;Temp;Humidity;BMP_temperature;BMP_pressure;BME280_temperature;BME280_humidity;BME280_pressure;Samples;Min_cycle;Max_cycle;Signal;HPM_P1;HPM_P2
2020/12/28 00:01:45;;;;;;;58.78;54.35;;;;;;;9.03;48.79;98693.75;4413526;32;32861;-87
2020/12/28 00:04:13;;;;;;;60.35;55.53;;;;;;;9.39;47.77;98684.47;4413892;32;33929;-88
2020/12/28 00:06:45;;;;;;;59.33;54.63;;;;;;;9.93;46.12;98679.50;4426218;32;33072;-87
2020/12/28 00:09:13;;;;;;;60.38;55.78;;;;;;;9.87;46.39;98680.63;4426476;32;33711;-87
2020/12/28 00:11:41;;;;;;;59.80;55.10;;;;;;;9.58;47.21;98685.34;4413631;32;32929;-86
2020/12/28 00:14:08;;;;;;;58.53;54.20;;;;;;;9.30;47.89;98675.31;4413455;32;33998;-86
2020/12/28 00:16:36;;;;;;;60.75;55.80;;;;;;;9.24;48.11;98686.84;4426154;32;33186;-86
2020/12/28 00:19:03;;;;;;;59.92;55.35;;;;;;;9.38;47.70;98672.41;4426040;32;33487;-87
2020/12/28 00:21:31;;;;;;;60.65;55.80;;;;;;;9.63;47.26;98675.59;4425806;32;32774;-86
2020/12/28 00:23:59;;;;;;;57.92;53.50;;;;;;;9.37;47.91;98663.72;4439153;32;34432;-87
2020/12/28 00:26:26;;;;;;;60.53;55.78;;;;;;;9.29;48.44;98652.81;4426095;32;32518;-87
2020/12/28 00:29:06;;;;;;;59.83;55.05;;;;;;;9.71;47.21;98656.22;4426895;32;33639;-86
2020/12/28 00:31:35;;;;;;;59.15;54.17;;;;;;;9.52;47.82;98642.28;4425999;32;32777;-87
2020/12/28 00:34:03;;;;;;;60.00;55.12;;;;;;;9.08;48.73;98650.25;4438609;32;33131;-87
2020/12/28 00:36:30;;;;;;;60.25;55.65;;;;;;;9.40;48.10;98648.03;4426123;32;34181;-87
2020/12/28 00:38:59;;;;;;;59.67;54.90;;;;;;;9.80;47.17;98645.41;4426259;32;34148;-87
2020/12/28 00:41:26;;;;;;;60.05;55.25;;;;;;;8.97;49.00;98636.84;4438993;32;34218;-87
2020/12/28 00:43:53;;;;;;;59.53;54.83;;;;;;;8.97;49.42;98632.50;4413180;32;32743;-87
2020/12/28 00:46:24;;;;;;;59.63;55.03;;;;;;;9.34;48.02;98623.13;4413941;32;33285;-87
2020/12/28 00:48:51;;;;;;;59.03;54.50;;;;;;;9.07;48.93;98613.91;4426350;32;32973;-87
2020/12/28 00:51:18;;;;;;;58.78;54.20;;;;;;;10.05;46.59;98621.72;4413427;32;33446;-86
2020/12/28 00:53:48;;;;;;;58.90;54.38;;;;;;;9.69;47.02;98614.66;4426479;32;33798;-87
2020/12/28 00:56:18;;;;;;;58.40;54.10;;;;;;;9.53;47.63;98611.91;4425520;32;33926;-87
2020/12/28 00:58:45;;;;;;;59.33;54.60;;;;;;;9.71;47.48;98606.81;4425600;32;32880;-87
2020/12/28 01:01:13;;;;;;;57.85;53.55;;;;;;;9.65;47.50;98616.56;4413269;32;32714;-86
2020/12/28 01:03:41;;;;;;;58.92;54.40;;;;;;;9.87;46.79;98607.78;4427258;32;32853;-87
2020/12/28 01:06:09;;;;;;;59.67;55.28;;;;;;;9.97;46.83;98600.38;4430597;32;33735;-87
2020/12/28 01:08:39;;;;;;;57.95;53.58;;;;;;;9.35;48.04;98604.03;4418612;32;31890;-87
2020/12/28 01:11:07;;;;;;;57.42;53.13;;;;;;;9.57;47.86;98604.81;4431359;32;32867;-87
2020/12/28 01:13:36;;;;;;;59.38;54.97;;;;;;;9.31;48.79;98596.44;4431836;32;34708;-87
2020/12/28 01:16:10;;;;;;;58.45;54.15;;;;;;;9.27;48.73;98582.72;4430807;32;34264;-87
2020/12/28 01:18:43;;;;;;;57.92;53.78;;;;;;;9.17;49.01;98574.50;4425535;32;33649;-87
2020/12/28 01:21:20;;;;;;;58.58;54.03;;;;;;;9.06;49.47;98571.50;4425648;32;33716;-87
2020/12/28 01:23:49;;;;;;;57.45;53.25;;;;;;;8.84;49.74;98564.66;4412991;32;34242;-87
2020/12/28 01:26:18;;;;;;;57.60;53.40;;;;;;;9.29;48.80;98552.31;4426242;32;34738;-87
2020/12/28 01:28:46;;;;;;;58.25;54.00;;;;;;;9.25;48.68;98561.13;4426021;32;34215;-87
2020/12/28 01:31:15;;;;;;;57.53;53.33;;;;;;;9.60;48.14;98550.06;4426173;32;33895;-88
2020/12/28 01:33:46;;;;;;;57.22;53.13;;;;;;;9.41;48.38;98537.06;4426642;32;34241;-87
2020/12/28 01:36:15;;;;;;;57.53;53.20;;;;;;;9.43;48.44;98517.88;4425626;32;34202;-87
2020/12/28 01:38:43;;;;;;;56.53;52.42;;;;;;;9.41;48.78;98518.88;4425518;32;32507;-87
2020/12/28 01:41:12;;;;;;;57.45;52.97;;;;;;;9.23;48.57;98520.53;4425982;32;33827;-87
2020/12/28 01:43:41;;;;;;;56.65;52.42;;;;;;;10.10;46.81;98514.78;4438587;32;33497;-87
2020/12/28 01:46:10;;;;;;;56.53;52.58;;;;;;;10.06;46.76;98508.03;4426044;32;34526;-87
2020/12/28 01:48:39;;;;;;;57.72;53.45;;;;;;;9.59;48.23;98514.59;4426020;32;34111;-87
2020/12/28 01:51:07;;;;;;;56.22;52.20;;;;;;;9.76;47.85;98503.38;4413078;32;34370;-86
2020/12/28 01:53:35;;;;;;;57.62;53.22;;;;;;;9.83;47.44;98500.41;4412929;32;35202;-87
2020/12/28 01:56:08;;;;;;;55.45;51.65;;;;;;;10.23;46.49;98497.66;4438166;32;32996;-87
2020/12/28 01:58:36;;;;;;;55.92;52.03;;;;;;;9.27;49.19;98489.16;4438489;32;33901;-87
2020/12/28 02:01:05;;;;;;;57.58;53.38;;;;;;;10.11;47.00;98480.03;4413067;32;32742;-87
2020/12/28 02:03:34;;;;;;;56.80;52.53;;;;;;;9.53;48.26;98487.97;4425558;32;32875;-87
2020/12/28 02:06:04;;;;;;;56.25;52.25;;;;;;;9.94;47.60;98486.88;4425419;32;35514;-86
2020/12/28 02:08:31;;;;;;;56.22;52.17;;;;;;;9.64;48.22;98502.19;4438155;32;33036;-87
2020/12/28 02:11:00;;;;;;;57.03;52.92;;;;;;;10.03;47.10;98496.03;4413058;32;32567;-87
2020/12/28 02:13:30;;;;;;;55.60;51.60;;;;;;;9.86;47.30;98504.63;4413219;32;33244;-87
2020/12/28 02:15:59;;;;;;;55.80;51.90;;;;;;;9.91;47.60;98499.22;4425610;32;35233;-87
2020/12/28 02:18:27;;;;;;;55.90;51.95;;;;;;;10.08;47.04;98496.62;4425270;32;32415;-88
2020/12/28 02:20:56;;;;;;;55.50;51.60;;;;;;;10.40;46.24;98496.84;4425975;32;34006;-87
2020/12/28 02:23:24;;;;;;;55.33;51.55;;;;;;;10.18;46.43;98495.28;4425004;32;33886;-86
2020/12/28 02:25:51;;;;;;;54.88;51.13;;;;;;;10.83;45.03;98488.59;4425208;32;32797;-86
2020/12/28 02:28:19;;;;;;;56.15;52.15;;;;;;;9.89;47.21;98485.44;4412634;32;32614;-87
2020/12/28 02:30:47;;;;;;;55.50;51.70;;;;;;;10.41;46.05;98479.44;4412779;32;33994;-87
2020/12/28 02:33:17;;;;;;;55.58;51.78;;;;;;;10.79;45.11;98477.47;4426155;32;33975;-87
2020/12/28 02:35:45;;;;;;;55.85;51.97;;;;;;;10.91;44.89;98473.41;4399986;32;35548;-87
2020/12/28 02:38:13;;;;;;;56.28;52.35;;;;;;;10.65;45.24;98473.00;4412503;32;32792;-87
2020/12/28 02:40:41;;;;;;;56.78;52.80;;;;;;;11.28;43.75;98460.19;4438284;32;33404;-87
2020/12/28 02:43:09;;;;;;;57.03;52.95;;;;;;;11.16;43.89;98461.69;4425666;32;33851;-87
2020/12/28 02:45:51;;;;;;;57.05;53.00;;;;;;;11.20;43.79;98469.22;4414869;32;33125;-87
2020/12/28 02:48:34;;;;;;;57.45;53.38;;;;;;;10.57;45.53;98458.69;4398603;32;33451;-88
2020/12/28 02:51:17;;;;;;;57.10;53.17;;;;;;;10.32;46.20;98458.12;4393561;32;32737;-87
2020/12/28 02:54:10;;;;;;;55.40;51.60;;;;;;;11.14;44.14;98453.94;4417818;32;33877;-88
2020/12/28 02:56:56;;;;;;;56.17;52.05;;;;;;;11.56;43.33;98454.28;4413788;32;34267;-87
2020/12/28 02:59:38;;;;;;;56.70;52.78;;;;;;;11.69;42.81;98447.44;4382576;32;32314;-87
2020/12/28 03:02:24;;;;;;;56.35;52.50;;;;;;;11.82;42.48;98442.38;4413287;32;33340;-88
2020/12/28 03:05:09;;;;;;;57.62;53.60;;;;;;;11.31;43.83;98439.97;4385387;32;33035;-87
2020/12/28 03:07:57;;;;;;;56.17;52.35;;;;;;;10.82;44.79;98438.25;4401203;32;33169;-87
2020/12/28 03:10:43;;;;;;;57.33;53.13;;;;;;;11.51;43.44;98448.47;4403501;32;32696;-87
2020/12/28 03:13:28;;;;;;;57.00;52.80;;;;;;;11.55;43.35;98441.31;4398418;32;33805;-87
2020/12/28 03:16:14;;;;;;;57.42;53.45;;;;;;;11.49;43.39;98437.31;4426253;32;33009;-88
2020/12/28 03:18:59;;;;;;;58.13;53.72;;;;;;;10.81;45.17;98427.91;4400233;32;33634;-88
2020/12/28 03:21:51;;;;;;;57.08;53.13;;;;;;;11.02;44.95;98431.13;4376030;32;32416;-88
2020/12/28 03:24:39;;;;;;;57.62;53.40;;;;;;;10.62;45.59;98428.03;4405315;32;32871;-87
2020/12/28 03:27:33;;;;;;;57.15;52.85;;;;;;;10.96;44.94;98429.69;4383588;32;33254;-87
2020/12/28 03:30:22;;;;;;;57.33;53.20;;;;;;;10.33;46.67;98428.59;4418300;32;34779;-87
2020/12/28 03:33:13;;;;;;;58.13;54.05;;;;;;;11.11;44.77;98435.00;4368582;32;33488;-87
2020/12/28 03:35:56;;;;;;;57.80;53.47;;;;;;;11.16;44.29;98426.00;4399876;32;32985;-87
2020/12/28 03:38:42;;;;;;;56.78;52.53;;;;;;;11.05;44.76;98423.16;4427951;32;32804;-87
2020/12/28 03:41:32;;;;;;;60.08;55.47;;;;;;;11.16;44.59;98406.94;4401846;32;32692;-87
2020/12/28 03:44:17;;;;;;;58.80;54.40;;;;;;;11.29;44.20;98409.72;4404828;32;33627;-87
2020/12/28 03:47:02;;;;;;;58.08;53.67;;;;;;;10.60;45.83;98407.28;4404671;32;32767;-87
2020/12/28 03:49:46;;;;;;;57.35;53.20;;;;;;;10.31;46.80;98404.38;4404736;32;33831;-87
2020/12/28 03:52:32;;;;;;;60.33;55.47;;;;;;;10.72;45.81;98408.41;4415052;32;33775;-87
2020/12/28 03:55:14;;;;;;;58.45;54.10;;;;;;;10.73;45.81;98406.63;4404839;32;33060;-88
2020/12/28 03:57:57;;;;;;;59.22;54.55;;;;;;;10.65;46.14;98410.47;4383802;32;33729;-87
2020/12/28 04:00:39;;;;;;;58.55;54.25;;;;;;;10.90;45.50;98406.56;4400162;32;32616;-87
2020/12/28 04:03:25;;;;;;;59.22;54.85;;;;;;;10.96;45.50;98406.25;4432299;32;32888;-87
2020/12/28 04:06:04;;;;;;;58.75;54.50;;;;;;;11.33;44.59;98401.63;4417026;32;32320;-87
2020/12/28 04:08:37;;;;;;;57.45;53.28;;;;;;;10.77;45.95;98401.19;4428448;32;34212;-87
2020/12/28 04:11:11;;;;;;;57.08;52.95;;;;;;;10.20;47.24;98394.53;4429660;32;33412;-87
2020/12/28 04:13:39;;;;;;;57.50;53.28;;;;;;;10.48;46.79;98384.50;4428395;32;33520;-88
2020/12/28 04:16:06;;;;;;;58.20;53.87;;;;;;;10.56;46.52;98384.09;4426839;32;33454;-86
2020/12/28 04:18:34;;;;;;;58.55;54.28;;;;;;;10.42;46.92;98375.22;4426082;32;33648;-87
2020/12/28 04:21:02;;;;;;;59.38;55.05;;;;;;;10.85;45.71;98382.53;4425937;32;33290;-87
2020/12/28 04:23:29;;;;;;;58.58;54.08;;;;;;;9.96;48.31;98381.00;4425832;32;33915;-87
2020/12/28 04:25:57;;;;;;;58.75;54.17;;;;;;;9.93;48.29;98383.75;4425955;32;33546;-86
2020/12/28 04:28:24;;;;;;;58.70;54.45;;;;;;;10.14;48.00;98375.78;4426184;32;33796;-87
2020/12/28 04:30:51;;;;;;;58.65;54.45;;;;;;;9.95;48.27;98381.91;4438768;32;34124;-88
2020/12/28 04:33:19;;;;;;;57.15;53.13;;;;;;;9.78;49.00;98381.91;4426305;32;33404;-87
2020/12/28 04:35:46;;;;;;;58.95;54.63;;;;;;;10.23;47.86;98364.06;4439053;32;33141;-87
2020/12/28 04:38:13;;;;;;;59.33;54.92;;;;;;;10.15;47.94;98362.69;4413084;32;33414;-87
2020/12/28 04:40:41;;;;;;;58.72;54.25;;;;;;;10.43;47.38;98363.06;4426198;32;33275;-87
2020/12/28 04:43:13;;;;;;;59.30;54.63;;;;;;;10.74;46.89;98358.81;4425824;32;32860;-87
2020/12/28 04:45:41;;;;;;;58.28;54.17;;;;;;;10.36;47.24;98354.72;4413355;32;33429;-88
2020/12/28 04:48:10;;;;;;;58.28;54.17;;;;;;;10.73;46.24;98346.72;4425752;32;32918;-87
2020/12/28 04:50:38;;;;;;;58.05;53.63;;;;;;;9.93;48.53;98338.66;4438477;32;34204;-87
2020/12/28 04:53:06;;;;;;;57.33;53.10;;;;;;;10.63;46.75;98336.78;4426038;32;32871;-87
2020/12/28 04:55:34;;;;;;;59.50;55.08;;;;;;;10.20;47.73;98332.06;4428663;32;33251;-87
2020/12/28 04:58:02;;;;;;;60.45;55.95;;;;;;;10.08;48.13;98331.84;4427524;32;32955;-87
2020/12/28 05:00:29;;;;;;;59.92;55.22;;;;;;;10.48;47.18;98332.41;4437968;32;33884;-87
2020/12/28 05:02:59;;;;;;;58.08;53.83;;;;;;;10.86;45.90;98340.75;4436272;32;33642;-87
2020/12/28 05:05:26;;;;;;;60.45;55.83;;;;;;;11.06;45.60;98343.19;4417081;32;32255;-87
2020/12/28 05:07:53;;;;;;;58.60;54.30;;;;;;;10.72;46.50;98334.63;4425220;32;32905;-87
2020/12/28 05:10:26;;;;;;;57.67;53.58;;;;;;;10.20;47.97;98342.47;4438693;32;34451;-87
2020/12/28 05:12:54;;;;;;;58.50;54.28;;;;;;;10.86;46.43;98332.09;4412957;32;33153;-87
2020/12/28 05:15:22;;;;;;;59.17;54.85;;;;;;;9.94;48.61;98333.38;4412475;32;34717;-87
2020/12/28 05:17:53;;;;;;;60.30;55.47;;;;;;;10.33;47.84;98332.25;4425792;32;34002;-87
2020/12/28 05:20:23;;;;;;;58.75;54.28;;;;;;;10.35;47.77;98327.00;4425712;32;32711;-87
2020/12/28 05:22:54;;;;;;;57.67;53.15;;;;;;;9.68;49.47;98329.50;4413223;32;32997;-87
2020/12/28 05:25:26;;;;;;;56.20;52.10;;;;;;;10.38;47.92;98331.22;4425806;32;32383;-87
2020/12/28 05:27:55;;;;;;;57.33;52.88;;;;;;;10.31;47.68;98330.66;4413213;32;34028;-87
2020/12/28 05:30:24;;;;;;;58.78;54.38;;;;;;;10.51;47.44;98316.63;4426234;32;33558;-87
2020/12/28 05:32:51;;;;;;;56.72;52.62;;;;;;;10.44;47.30;98307.47;4413513;32;33414;-87
2020/12/28 05:35:19;;;;;;;57.65;53.15;;;;;;;10.64;46.77;98309.00;4426291;32;33333;-87
2020/12/28 05:37:47;;;;;;;57.88;53.63;;;;;;;11.05;46.32;98290.25;4413210;32;32754;-87
2020/12/28 05:40:16;;;;;;;57.95;53.65;;;;;;;10.71;46.97;98293.87;4426789;32;34691;-88
2020/12/28 05:42:52;;;;;;;61.60;56.75;;;;;;;10.18;48.46;98300.06;4428824;32;34020;-87
2020/12/28 05:45:19;;;;;;;59.75;55.15;;;;;;;10.36;47.89;98294.84;4431682;32;33362;-87
2020/12/28 05:47:58;;;;;;;59.80;55.12;;;;;;;11.01;46.13;98299.97;4433957;32;32901;-87
2020/12/28 05:50:29;;;;;;;57.20;53.10;;;;;;;10.69;47.20;98300.00;4425681;32;34027;-86
2020/12/28 05:52:59;;;;;;;56.83;52.62;;;;;;;9.74;49.69;98300.56;4425707;32;32869;-86
2020/12/28 05:55:29;;;;;;;59.22;54.85;;;;;;;9.66;49.54;98293.16;4438356;32;33073;-87
2020/12/28 05:57:59;;;;;;;61.70;56.60;;;;;;;9.75;50.01;98306.63;4425747;32;33907;-87
2020/12/28 06:00:26;;;;;;;60.15;55.47;;;;;;;10.41;47.80;98305.00;4425486;32;34492;-87
2020/12/28 06:03:09;;;;;;;61.45;56.58;;;;;;;11.08;46.08;98304.88;4437622;32;33856;-86
2020/12/28 06:05:36;;;;;;;59.75;55.33;;;;;;;10.90;46.55;98328.38;4412538;32;32944;-87
2020/12/28 06:08:04;;;;;;;60.05;55.28;;;;;;;10.65;47.03;98332.34;4424964;32;33956;-87
2020/12/28 06:10:34;;;;;;;59.13;54.58;;;;;;;10.71;46.69;98336.38;4425270;32;33097;-87
2020/12/28 06:13:01;;;;;;;58.95;54.58;;;;;;;10.84;46.06;98320.94;4425532;32;33848;-86
2020/12/28 06:15:29;;;;;;;61.25;56.50;;;;;;;10.88;46.09;98319.84;4437760;32;33036;-87
2020/12/28 06:17:57;;;;;;;60.47;55.85;;;;;;;11.35;45.16;98302.44;4425244;32;33925;-86
2020/12/28 06:20:31;;;;;;;63.83;59.20;;;;;;;11.44;45.05;98311.53;4424640;32;33450;-88
2020/12/28 06:23:04;;;;;;;58.85;54.47;;;;;;;10.64;46.46;98322.00;4413392;32;32585;-87
2020/12/28 06:25:32;;;;;;;61.03;56.53;;;;;;;10.36;47.39;98331.28;4427239;32;33051;-87
2020/12/28 06:28:00;;;;;;;59.75;55.22;;;;;;;10.51;47.70;98327.03;4413503;32;33294;-87
2020/12/28 06:30:27;;;;;;;59.60;55.03;;;;;;;11.10;45.98;98329.06;4414002;32;33056;-86
2020/12/28 06:33:03;;;;;;;57.83;53.60;;;;;;;10.61;46.82;98345.59;4439131;32;32919;-89
2020/12/28 06:35:32;;;;;;;59.42;54.90;;;;;;;10.69;47.11;98341.66;4426182;32;32878;-87
2020/12/28 06:38:01;;;;;;;58.05;53.75;;;;;;;10.69;46.67;98341.66;4413649;32;32734;-88
2020/12/28 06:40:29;;;;;;;58.75;54.55;;;;;;;10.89;46.00;98347.56;4425877;32;33053;-87
2020/12/28 06:43:11;;;;;;;59.75;55.28;;;;;;;10.92;46.21;98344.78;4425405;32;33543;-86
2020/12/28 06:45:40;;;;;;;57.93;53.43;;;;;;;9.11;50.99;98355.66;4438534;32;34264;-87
2020/12/28 06:48:22;;;;;;;57.90;53.47;;;;;;;10.48;47.30;98363.66;4425148;32;33947;-86
2020/12/28 06:51:06;;;;;;;58.33;53.92;;;;;;;10.47;47.49;98354.16;4424884;32;33077;-87
2020/12/28 06:53:33;;;;;;;57.47;53.45;;;;;;;10.43;47.87;98350.03;4425678;32;33697;-87
2020/12/28 06:56:08;;;;;;;58.15;53.65;;;;;;;8.83;52.10;98360.38;4411109;32;33535;-87
2020/12/28 06:58:37;;;;;;;58.22;53.87;;;;;;;9.75;49.89;98376.87;4424834;32;34005;-86
2020/12/28 07:01:05;;;;;;;57.60;53.47;;;;;;;9.92;49.50;98382.06;4424601;32;33243;-86
2020/12/28 07:03:33;;;;;;;56.35;52.22;;;;;;;6.75;59.08;98390.47;4424545;32;32871;-89
2020/12/28 07:06:05;;;;;;;58.47;53.55;;;;;;;7.02;58.25;98391.22;4412454;32;34077;-87
2020/12/28 07:08:33;;;;;;;61.90;57.50;;;;;;;7.89;55.68;98380.00;4412232;32;33529;-87
2020/12/28 07:11:03;;;;;;;60.75;56.17;;;;;;;9.25;51.76;98375.78;4411862;32;33443;-86
2020/12/28 07:13:31;;;;;;;57.50;52.97;;;;;;;8.83;52.79;98390.69;4426179;32;33482;-86
2020/12/28 07:16:03;;;;;;;57.25;53.05;;;;;;;7.23;57.41;98393.84;4415284;32;32466;-87
2020/12/28 07:18:31;;;;;;;57.58;53.22;;;;;;;7.29;57.82;98392.78;4415395;32;32633;-87
2020/12/28 07:21:02;;;;;;;57.72;53.03;;;;;;;7.63;57.38;98397.47;4427190;32;34900;-87
2020/12/28 07:23:30;;;;;;;58.00;53.80;;;;;;;7.49;57.47;98404.97;4438629;32;34573;-86
2020/12/28 07:26:10;;;;;;;57.80;53.22;;;;;;;8.26;54.83;98409.56;4424858;32;33058;-89
2020/12/28 07:28:38;;;;;;;58.20;53.65;;;;;;;8.66;53.57;98394.88;4412244;32;32204;-86
2020/12/28 07:31:07;;;;;;;58.08;53.55;;;;;;;7.41;57.06;98407.03;4424933;32;33786;-86
2020/12/28 07:33:44;;;;;;;58.50;54.00;;;;;;;8.88;53.16;98400.87;4412313;32;33596;-87
2020/12/28 07:36:13;;;;;;;59.33;54.25;;;;;;;8.35;54.22;98398.81;4424568;32;32845;-86
2020/12/28 07:38:43;;;;;;;57.38;52.60;;;;;;;7.95;56.08;98397.03;4411846;32;33367;-87
2020/12/28 07:41:19;;;;;;;59.58;54.97;;;;;;;8.97;52.25;98401.28;4412129;32;33295;-87
2020/12/28 07:44:05;;;;;;;59.10;54.17;;;;;;;8.60;53.46;98410.75;4411734;32;33004;-87
2020/12/28 07:47:01;;;;;;;58.85;54.08;;;;;;;8.21;54.21;98410.69;4424930;32;32539;-87
2020/12/28 07:49:31;;;;;;;58.40;53.90;;;;;;;9.22;51.35;98409.72;4427248;32;33680;-86
2020/12/28 07:52:16;;;;;;;58.50;53.97;;;;;;;9.10;51.45;98403.34;4424114;32;32881;-87
2020/12/28 07:54:58;;;;;;;57.58;53.05;;;;;;;8.26;53.63;98406.16;4424521;32;33489;-86
2020/12/28 07:57:43;;;;;;;58.50;53.97;;;;;;;9.00;51.27;98398.56;4424716;32;33841;-87
2020/12/28 08:00:13;;;;;;;56.70;52.10;;;;;;;9.62;49.82;98400.84;4424986;32;33889;-87
2020/12/28 08:03:18;;;;;;;58.67;53.97;;;;;;;8.17;53.73;98408.22;4424829;32;33901;-87
2020/12/28 08:05:46;;;;;;;57.05;52.50;;;;;;;9.37;50.21;98414.19;4424420;32;32962;-87
2020/12/28 08:08:24;;;;;;;59.00;54.28;;;;;;;8.67;52.10;98412.16;4413914;32;32551;-86
2020/12/28 08:10:56;;;;;;;57.20;52.72;;;;;;;9.52;49.88;98412.62;4414183;32;32824;-87
2020/12/28 08:13:26;;;;;;;59.10;54.30;;;;;;;9.72;49.22;98416.00;4426468;32;34457;-87
2020/12/28 08:15:54;;;;;;;58.40;53.63;;;;;;;9.24;50.93;98413.94;4426442;32;33750;-87
2020/12/28 08:18:22;;;;;;;57.47;52.85;;;;;;;8.50;52.66;98425.88;4426572;32;32748;-87
2020/12/28 08:20:57;;;;;;;56.72;52.35;;;;;;;9.40;50.29;98421.84;4439426;32;34609;-87
2020/12/28 08:23:28;;;;;;;57.80;53.15;;;;;;;8.92;50.86;98411.06;4426425;32;32676;-86
2020/12/28 08:25:56;;;;;;;56.47;52.28;;;;;;;9.15;50.49;98422.16;4426554;32;33808;-87
2020/12/28 08:28:23;;;;;;;56.97;52.35;;;;;;;9.66;49.15;98423.19;4426541;32;32402;-87
2020/12/28 08:30:51;;;;;;;56.92;52.50;;;;;;;8.93;50.15;98417.09;4414117;32;33707;-86
2020/12/28 08:33:20;;;;;;;57.33;52.72;;;;;;;9.74;48.42;98412.41;4414172;32;33185;-87
2020/12/28 08:35:48;;;;;;;57.05;52.85;;;;;;;10.43;46.86;98413.34;4413771;32;33046;-87
2020/12/28 08:38:28;;;;;;;57.10;52.67;;;;;;;10.55;46.48;98417.09;4413983;32;33623;-87
2020/12/28 08:40:56;;;;;;;57.05;52.55;;;;;;;10.51;46.48;98413.78;4426625;32;33025;-87
2020/12/28 08:43:23;;;;;;;57.88;53.45;;;;;;;10.33;47.05;98410.34;4430668;32;34704;-87
2020/12/28 08:46:04;;;;;;;58.35;54.05;;;;;;;10.11;47.95;98402.78;4434578;32;33722;-87
2020/12/28 08:48:31;;;;;;;57.40;52.80;;;;;;;10.58;46.54;98403.06;4417571;32;32528;-87
2020/12/28 08:50:59;;;;;;;57.62;53.28;;;;;;;10.82;46.11;98400.91;4439480;32;34527;-87
2020/12/28 08:53:26;;;;;;;58.15;53.70;;;;;;;10.62;46.36;98408.06;4413414;32;33885;-87
2020/12/28 08:56:01;;;;;;;58.65;54.40;;;;;;;11.15;45.42;98410.47;4413355;32;32589;-87
2020/12/28 08:58:29;;;;;;;58.40;53.97;;;;;;;11.13;45.15;98413.16;4439165;32;33505;-87
2020/12/28 09:01:03;;;;;;;59.30;54.90;;;;;;;11.17;45.07;98430.31;4413370;32;32920;-87
2020/12/28 09:03:31;;;;;;;62.40;57.58;;;;;;;10.44;46.48;98422.84;4425994;32;34260;-87
2020/12/28 09:05:59;;;;;;;57.22;52.92;;;;;;;9.54;48.79;98439.37;4426335;32;32182;-87
2020/12/28 09:08:28;;;;;;;59.75;55.25;;;;;;;10.00;47.46;98441.53;4426009;32;32635;-87
2020/12/28 09:10:56;;;;;;;58.42;53.75;;;;;;;9.96;47.53;98442.59;4439286;32;34628;-87
2020/12/28 09:13:24;;;;;;;57.80;53.30;;;;;;;9.81;48.44;98446.78;4426028;32;32919;-87
2020/12/28 09:15:52;;;;;;;58.00;53.70;;;;;;;10.28;47.52;98441.00;4425816;32;33321;-87
2020/12/28 09:18:19;;;;;;;57.53;53.28;;;;;;;10.15;48.01;98445.13;4424944;32;32901;-87
2020/12/28 09:20:47;;;;;;;57.28;52.97;;;;;;;10.98;45.69;98440.91;4425625;32;32843;-86
2020/12/28 09:23:14;;;;;;;57.03;52.88;;;;;;;11.63;43.72;98432.16;4425984;32;32828;-87
2020/12/28 09:25:42;;;;;;;56.88;52.70;;;;;;;11.57;43.60;98419.44;4426726;32;33521;-87
2020/12/28 09:28:09;;;;;;;56.67;52.53;;;;;;;11.06;44.66;98422.22;4439242;32;33730;-88
2020/12/28 09:30:37;;;;;;;56.63;52.45;;;;;;;10.90;45.30;98419.59;4413343;32;33693;-86
2020/12/28 09:33:04;;;;;;;57.08;53.10;;;;;;;8.65;51.04;98426.13;4425929;32;33809;-87
2020/12/28 09:35:32;;;;;;;56.55;52.40;;;;;;;8.91;51.16;98414.56;4426060;32;33532;-88
2020/12/28 09:37:59;;;;;;;57.83;53.53;;;;;;;10.66;46.64;98406.97;4425384;32;33705;-87
2020/12/28 09:40:26;;;;;;;56.47;52.47;;;;;;;10.45;46.98;98408.06;4438506;32;33914;-88
2020/12/28 09:42:58;;;;;;;57.10;52.83;;;;;;;10.15;47.95;98398.28;4426213;32;34464;-87
2020/12/28 09:45:37;;;;;;;56.97;52.50;;;;;;;10.31;47.70;98396.56;4426481;32;34498;-88
2020/12/28 09:48:06;;;;;;;56.42;52.20;;;;;;;10.75;46.68;98391.75;4414379;32;32646;-87
2020/12/28 09:50:52;;;;;;;55.15;51.00;;;;;;;11.42;45.32;98396.81;4417145;32;32729;-87
2020/12/28 09:53:20;;;;;;;60.42;56.13;;;;;;;11.85;43.95;98387.41;4438483;32;33860;-88
2020/12/28 09:55:48;;;;;;;56.05;52.03;;;;;;;10.83;46.89;98386.97;4425616;32;34589;-87
2020/12/28 09:58:15;;;;;;;57.33;52.90;;;;;;;10.90;46.43;98379.66;4425314;32;32398;-87
2020/12/28 10:00:42;;;;;;;58.22;53.67;;;;;;;10.98;46.29;98388.78;4425678;32;32690;-88
2020/12/28 10:03:11;;;;;;;57.22;52.88;;;;;;;10.48;47.83;98393.13;4413135;32;32749;-88
2020/12/28 10:05:38;;;;;;;58.63;54.33;;;;;;;10.27;48.50;98387.22;4425649;32;32895;-88
2020/12/28 10:08:06;;;;;;;57.28;53.00;;;;;;;10.09;48.90;98396.84;4438840;32;33555;-87
2020/12/28 10:10:33;;;;;;;57.33;52.92;;;;;;;10.34;48.20;98388.62;4426660;32;34375;-87
2020/12/28 10:13:00;;;;;;;58.75;54.47;;;;;;;9.90;49.24;98403.88;4414330;32;33222;-87
2020/12/28 10:15:28;;;;;;;58.15;53.55;;;;;;;9.35;50.78;98405.63;4429279;32;33127;-87
2020/12/28 10:18:21;;;;;;;56.92;52.70;;;;;;;10.09;49.06;98403.78;4430619;32;33659;-88
2020/12/28 10:20:49;;;;;;;;;;;;;;;10.30;48.46;98410.53;4429357;32;33115;-87
2020/12/28 10:23:17;;;;;;;56.17;52.13;;;;;;;10.17;49.01;98407.69;4425674;32;34093;-87
2020/12/28 10:25:45;;;;;;;56.45;52.03;;;;;;;10.23;48.44;98395.28;4425721;32;34559;-87
2020/12/28 10:28:12;;;;;;;59.30;54.72;;;;;;;10.50;48.05;98382.63;4425093;32;32474;-87
2020/12/28 10:30:40;;;;;;;60.22;55.42;;;;;;;10.59;47.21;98376.09;4425000;32;33037;-87
2020/12/28 10:33:08;;;;;;;59.40;54.60;;;;;;;9.68;49.94;98377.16;4412780;32;33107;-87
2020/12/28 10:35:36;;;;;;;59.90;55.17;;;;;;;9.71;50.12;98378.78;4425550;32;34246;-87
2020/12/28 10:38:05;;;;;;;57.78;53.30;;;;;;;8.60;52.71;98384.78;4425280;32;32942;-88
2020/12/28 10:40:32;;;;;;;59.53;54.60;;;;;;;9.24;51.05;98368.91;4425218;32;32971;-87
2020/12/28 10:43:09;;;;;;;59.50;54.92;;;;;;;9.72;50.10;98358.78;4425924;32;32930;-87
2020/12/28 10:45:36;;;;;;;56.90;52.80;;;;;;;8.90;52.83;98354.91;4412761;32;33544;-87
2020/12/28 10:48:03;;;;;;;57.20;52.90;;;;;;;9.75;50.11;98358.66;4412741;32;32427;-87
2020/12/28 10:50:32;;;;;;;58.60;54.10;;;;;;;9.48;50.50;98366.88;4412759;32;33056;-87
2020/12/28 10:52:59;;;;;;;59.15;54.28;;;;;;;10.34;48.40;98364.34;4424809;32;34088;-87
2020/12/28 10:55:26;;;;;;;58.97;54.30;;;;;;;10.47;47.97;98351.56;4425369;32;33813;-88
2020/12/28 10:57:54;;;;;;;58.20;53.72;;;;;;;10.89;47.10;98344.97;4424907;32;32487;-88
2020/12/28 11:00:22;;;;;;;58.10;53.53;;;;;;;10.97;47.06;98334.97;4412390;32;32847;-87
2020/12/28 11:02:50;;;;;;;57.35;52.58;;;;;;;10.25;48.75;98341.38;4425179;32;33269;-87
2020/12/28 11:05:18;;;;;;;57.28;52.78;;;;;;;10.47;48.14;98343.75;4425110;32;33796;-87
2020/12/28 11:07:45;;;;;;;58.90;54.05;;;;;;;10.48;47.74;98335.84;4412508;32;32675;-87
2020/12/28 11:10:12;;;;;;;62.20;56.70;;;;;;;10.04;49.14;98349.38;4437711;32;34021;-88
2020/12/28 11:12:40;;;;;;;58.35;53.85;;;;;;;9.55;50.55;98347.47;4412221;32;33303;-87
2020/12/28 11:15:08;;;;;;;60.58;55.88;;;;;;;10.20;48.54;98350.28;4412437;32;32397;-87
2020/12/28 11:17:35;;;;;;;58.47;54.00;;;;;;;10.60;47.71;98344.78;4412262;32;33240;-87
2020/12/28 11:20:03;;;;;;;59.08;54.30;;;;;;;10.65;47.39;98334.94;4424828;32;33177;-87
2020/12/28 11:22:30;;;;;;;59.90;54.92;;;;;;;10.94;46.84;98329.06;4412034;32;32938;-88
2020/12/28 11:24:57;;;;;;;58.87;54.08;;;;;;;10.85;46.84;98322.63;4412017;32;32810;-88
2020/12/28 11:27:26;;;;;;;58.75;54.00;;;;;;;10.20;48.58;98315.59;4424765;32;33518;-88
2020/12/28 11:29:54;;;;;;;59.17;54.30;;;;;;;11.56;45.17;98310.81;4424770;32;34387;-88
2020/12/28 11:32:21;;;;;;;59.92;55.05;;;;;;;11.60;45.02;98309.69;4424427;32;33126;-88
2020/12/28 11:34:49;;;;;;;60.05;54.78;;;;;;;11.81;44.72;98297.16;4427390;32;33450;-87
2020/12/28 11:37:17;;;;;;;59.58;54.50;;;;;;;11.90;44.41;98287.09;4427854;32;33430;-88
2020/12/28 11:39:44;;;;;;;58.47;53.83;;;;;;;11.21;46.04;98292.81;4413779;32;33832;-88
2020/12/28 11:42:15;;;;;;;58.33;53.83;;;;;;;10.81;47.43;98297.62;4429391;32;33513;-88